Time;durP1;ratioP1;P1;durP2;ratioP2;P2;SDS_P1;SDS_P2;PMS_P1;PMS_P2;Temp;Humidity;BMP_temperature;BMP_pressure;BME280_temperature;BME280_humidity;BME280_pressure;Samples;Min_cycle;Max_cycle;Signal;HPM_P1;HPM_P2
2021/06/13 00:01:28;;;;;;;5.60;2.72;;;;;;;;;;5048924;28;20028;-61
2021/06/13 00:03:53;;;;;;;6.03;2.10;;;;;;;;;;5049645;28;20564;-57
2021/06/13 00:06:19;;;;;;;4.63;1.80;;;;;;;;;;5050110;28;20688;-53
2021/06/13 00:08:44;;;;;;;5.32;2.20;;;;;;;;;;5049708;28;20108;-57
2021/06/13 00:11:09;;;;;;;5.50;2.15;;;;;;;;;;5049111;28;20526;-53
2021/06/13 00:13:35;;;;;;;3.53;1.85;;;;;;;;;;5050035;28;20386;-54
2021/06/13 00:16:00;;;;;;;4.82;1.80;;;;;;;;;;5048394;28;20119;-57
2021/06/13 00:18:26;;;;;;;4.80;2.13;;;;;;;;;;5031546;28;20033;-59
2021/06/13 00:20:52;;;;;;;4.90;2.10;;;;;;;;;;5049698;28;20098;-54
2021/06/13 00:23:18;;;;;;;5.25;1.95;;;;;;;;;;5048663;28;20028;-53
2021/06/13 00:25:43;;;;;;;6.45;2.00;;;;;;;;;;5049551;28;20032;-53
2021/06/13 00:28:08;;;;;;;4.13;1.75;;;;;;;;;;5049151;28;20063;-58
2021/06/13 00:30:34;;;;;;;3.33;1.85;;;;;;;;;;5049196;28;20151;-58
2021/06/13 00:33:00;;;;;;;5.50;2.30;;;;;;;;;;5031750;28;20079;-53
2021/06/13 00:35:25;;;;;;;4.20;2.10;;;;;;;;;;5048427;28;20035;-59
2021/06/13 00:37:51;;;;;;;4.85;1.95;;;;;;;;;;5047702;28;20529;-57
2021/06/13 00:40:17;;;;;;;4.40;1.90;;;;;;;;;;5048512;28;20028;-56
2021/06/13 00:42:44;;;;;;;7.07;2.00;;;;;;;;;;5046947;28;20021;-57
2021/06/13 00:45:09;;;;;;;3.78;1.92;;;;;;;;;;5029777;28;20036;-62
2021/06/13 00:47:35;;;;;;;4.30;2.28;;;;;;;;;;5011309;28;20034;-56
2021/06/13 00:50:00;;;;;;;3.55;2.08;;;;;;;;;;5029048;28;20017;-56
2021/06/13 00:52:25;;;;;;;2.95;1.70;;;;;;;;;;5046810;28;20027;-53
2021/06/13 00:54:51;;;;;;;4.45;1.92;;;;;;;;;;5047836;28;20025;-57
2021/06/13 00:57:16;;;;;;;3.42;2.10;;;;;;;;;;5046354;28;20442;-57
2021/06/13 00:59:42;;;;;;;3.78;2.15;;;;;;;;;;5048858;28;20025;-53
2021/06/13 01:02:07;;;;;;;5.28;2.00;;;;;;;;;;5048824;28;20108;-54
2021/06/13 01:04:33;;;;;;;4.97;1.90;;;;;;;;;;5048059;28;20024;-60
2021/06/13 01:07:04;;;;;;;4.28;2.03;;;;;;;;;;5047497;28;20527;-53
2021/06/13 01:09:33;;;;;;;3.85;1.67;;;;;;;;;;5048841;28;20031;-56
2021/06/13 01:12:08;;;;;;;3.58;2.05;;;;;;;;;;5048918;28;20038;-54
2021/06/13 01:14:48;;;;;;;5.50;2.00;;;;;;;;;;5048785;28;20112;-61
2021/06/13 01:17:17;;;;;;;3.22;1.70;;;;;;;;;;5027617;28;20087;-61
2021/06/13 01:19:49;;;;;;;4.03;2.05;;;;;;;;;;5030994;28;20091;-54
2021/06/13 01:22:37;;;;;;;3.85;2.25;;;;;;;;;;5030700;28;20614;-53
2021/06/13 01:25:36;;;;;;;4.35;2.03;;;;;;;;;;5048714;28;20046;-53
2021/06/13 01:28:39;;;;;;;3.60;1.95;;;;;;;;;;5048146;28;20021;-62
2021/06/13 01:31:04;;;;;;;3.75;1.90;;;;;;;;;;5040946;28;20024;-56
2021/06/13 01:33:30;;;;;;;5.60;2.00;;;;;;;;;;5030510;28;20493;-55
2021/06/13 01:35:55;;;;;;;4.97;2.25;;;;;;;;;;5030597;28;20025;-60
2021/06/13 01:38:21;;;;;;;4.60;1.52;;;;;;;;;;5030436;28;20119;-54
2021/06/13 01:40:46;;;;;;;2.83;1.80;;;;;;;;;;5039977;28;20094;-55
2021/06/13 01:43:13;;;;;;;3.53;1.73;;;;;;;;;;5063691;28;20068;-63
2021/06/13 01:45:39;;;;;;;4.03;1.77;;;;;;;;;;5043222;28;20029;-55
2021/06/13 01:48:06;;;;;;;4.28;2.10;;;;;;;;;;5010501;28;20033;-53
2021/06/13 01:50:31;;;;;;;3.65;1.80;;;;;;;;;;4996400;28;20052;-53
2021/06/13 01:52:59;;;;;;;3.67;1.90;;;;;;;;;;5030415;28;20097;-53
2021/06/13 01:55:24;;;;;;;4.57;1.95;;;;;;;;;;5047110;28;20033;-56
2021/06/13 01:57:50;;;;;;;5.00;2.10;;;;;;;;;;5048008;28;20036;-62
2021/06/13 02:00:16;;;;;;;4.00;1.83;;;;;;;;;;5048254;28;20025;-53
2021/06/13 02:02:43;;;;;;;5.72;1.98;;;;;;;;;;5047353;28;20100;-53
2021/06/13 02:05:09;;;;;;;4.22;2.20;;;;;;;;;;5029910;28;20757;-58
2021/06/13 02:07:35;;;;;;;3.35;2.20;;;;;;;;;;5018907;23;20443;-52
2021/06/13 02:10:01;;;;;;;4.95;2.10;;;;;;;;;;4974178;28;20030;-46
2021/06/13 02:12:27;;;;;;;3.42;1.83;;;;;;;;;;4974030;28;20041;-48
2021/06/13 02:14:52;;;;;;;4.00;2.17;;;;;;;;;;4974558;28;20398;-47
2021/06/13 02:17:17;;;;;;;5.28;2.30;;;;;;;;;;4991534;28;20069;-50
2021/06/13 02:19:43;;;;;;;3.38;1.98;;;;;;;;;;5011625;28;20065;-49
2021/06/13 02:22:08;;;;;;;3.70;1.92;;;;;;;;;;4994281;28;20080;-48
2021/06/13 02:24:36;;;;;;;4.13;1.90;;;;;;;;;;4977765;28;20064;-51
2021/06/13 02:27:02;;;;;;;3.78;1.98;;;;;;;;;;4992082;28;20029;-54
2021/06/13 02:29:27;;;;;;;4.90;2.00;;;;;;;;;;5009951;28;20109;-48
2021/06/13 02:31:53;;;;;;;4.80;2.00;;;;;;;;;;4975085;28;20101;-51
2021/06/13 02:34:20;;;;;;;4.82;2.10;;;;;;;;;;4978377;28;20116;-53
2021/06/13 02:36:47;;;;;;;6.50;2.33;;;;;;;;;;4977289;28;20030;-54
2021/06/13 02:39:12;;;;;;;5.47;1.80;;;;;;;;;;4978004;28;20021;-50
2021/06/13 02:41:37;;;;;;;3.88;1.85;;;;;;;;;;4994559;28;20598;-50
2021/06/13 02:44:03;;;;;;;5.65;2.70;;;;;;;;;;4994312;28;20051;-50
2021/06/13 02:46:29;;;;;;;3.22;2.03;;;;;;;;;;5009687;28;20026;-48
2021/06/13 02:48:54;;;;;;;4.63;2.03;;;;;;;;;;5010769;28;20041;-46
2021/06/13 02:51:22;;;;;;;3.55;2.15;;;;;;;;;;5011338;28;20484;-48
2021/06/13 02:53:49;;;;;;;4.22;2.20;;;;;;;;;;4993815;28;20175;-52
2021/06/13 02:56:38;;;;;;;4.60;1.90;;;;;;;;;;4976829;28;20193;-47
2021/06/13 02:59:25;;;;;;;4.43;2.00;;;;;;;;;;4996396;28;20026;-52
2021/06/13 03:01:51;;;;;;;3.55;1.90;;;;;;;;;;5011200;28;20034;-52
2021/06/13 03:04:17;;;;;;;4.38;2.33;;;;;;;;;;4990862;28;20033;-51
2021/06/13 03:06:46;;;;;;;5.30;2.47;;;;;;;;;;4976446;28;20108;-54
2021/06/13 03:09:11;;;;;;;6.10;2.13;;;;;;;;;;4976835;28;20052;-53
2021/06/13 03:11:37;;;;;;;4.53;2.25;;;;;;;;;;4977593;28;20029;-53
2021/06/13 03:14:02;;;;;;;4.75;2.13;;;;;;;;;;5009994;28;20034;-55
2021/06/13 03:16:28;;;;;;;4.75;2.28;;;;;;;;;;4980726;28;20121;-53
2021/06/13 03:18:53;;;;;;;5.70;2.53;;;;;;;;;;4962917;28;20444;-51
2021/06/13 03:21:20;;;;;;;5.43;2.20;;;;;;;;;;5010878;28;20427;-48
2021/06/13 03:23:45;;;;;;;4.38;2.10;;;;;;;;;;4993275;28;20556;-53
2021/06/13 03:26:11;;;;;;;4.88;2.25;;;;;;;;;;4977015;28;20143;-54
2021/06/13 03:28:37;;;;;;;4.97;2.25;;;;;;;;;;4991962;28;20017;-48
2021/06/13 03:31:03;;;;;;;6.70;2.85;;;;;;;;;;4980467;28;20022;-49
2021/06/13 03:33:29;;;;;;;5.20;2.20;;;;;;;;;;4973675;28;20029;-48
2021/06/13 03:35:55;;;;;;;4.68;2.38;;;;;;;;;;4990946;28;20030;-49
2021/06/13 03:38:21;;;;;;;5.15;2.10;;;;;;;;;;4972645;28;20045;-53
2021/06/13 03:40:46;;;;;;;5.03;2.50;;;;;;;;;;4962278;28;20483;-50
2021/06/13 03:43:12;;;;;;;4.35;2.22;;;;;;;;;;5010753;28;20536;-54
2021/06/13 03:45:37;;;;;;;5.03;2.47;;;;;;;;;;4990964;28;20025;-50
2021/06/13 03:48:03;;;;;;;4.45;2.13;;;;;;;;;;4985871;28;20656;-48
2021/06/13 03:50:29;;;;;;;6.22;2.20;;;;;;;;;;4975127;28;20027;-48
2021/06/13 03:52:54;;;;;;;7.18;2.60;;;;;;;;;;4992151;28;20034;-48
2021/06/13 03:55:20;;;;;;;6.13;2.50;;;;;;;;;;4992467;28;20037;-49
2021/06/13 03:57:47;;;;;;;4.47;2.30;;;;;;;;;;4975459;28;20022;-48
2021/06/13 04:00:13;;;;;;;4.75;2.30;;;;;;;;;;5010108;28;20044;-49
2021/06/13 04:02:41;;;;;;;4.60;2.53;;;;;;;;;;4991643;28;20349;-47
2021/06/13 04:05:06;;;;;;;5.43;2.53;;;;;;;;;;4992844;28;20030;-55
2021/06/13 04:07:32;;;;;;;3.67;2.30;;;;;;;;;;4974698;28;20034;-48
2021/06/13 04:09:57;;;;;;;5.40;2.47;;;;;;;;;;5009870;28;20084;-50
2021/06/13 04:12:22;;;;;;;5.18;2.80;;;;;;;;;;4976615;28;20017;-47
2021/06/13 04:14:48;;;;;;;4.18;2.22;;;;;;;;;;4991873;28;20037;-49
2021/06/13 04:17:14;;;;;;;5.93;2.78;;;;;;;;;;4991320;28;20057;-50
2021/06/13 04:19:39;;;;;;;4.70;2.30;;;;;;;;;;5009299;28;20033;-55
2021/06/13 04:22:05;;;;;;;6.65;2.40;;;;;;;;;;4992143;28;20091;-54
2021/06/13 04:24:30;;;;;;;4.05;2.50;;;;;;;;;;4991359;28;20108;-51
2021/06/13 04:26:56;;;;;;;3.80;2.10;;;;;;;;;;4973762;28;20501;-51
2021/06/13 04:29:21;;;;;;;3.75;2.20;;;;;;;;;;4975556;28;20026;-49
2021/06/13 04:31:47;;;;;;;4.90;2.60;;;;;;;;;;5003529;28;20033;-50
2021/06/13 04:34:12;;;;;;;4.35;2.70;;;;;;;;;;5008832;28;20030;-52
2021/06/13 04:36:37;;;;;;;5.63;2.80;;;;;;;;;;4999853;28;20038;-54
2021/06/13 04:39:03;;;;;;;6.28;2.42;;;;;;;;;;4989131;28;20085;-52
2021/06/13 04:41:33;;;;;;;4.80;2.25;;;;;;;;;;4992427;28;20034;-56
2021/06/13 04:43:59;;;;;;;5.03;2.08;;;;;;;;;;4998654;28;20026;-47
2021/06/13 04:46:27;;;;;;;6.60;2.60;;;;;;;;;;4998610;28;20113;-48
2021/06/13 04:48:52;;;;;;;4.88;2.35;;;;;;;;;;4997355;28;20025;-47
2021/06/13 04:51:17;;;;;;;6.25;2.40;;;;;;;;;;5000293;28;20498;-49
2021/06/13 04:53:52;;;;;;;4.38;2.38;;;;;;;;;;4979344;28;20025;-46
2021/06/13 04:56:17;;;;;;;6.43;2.75;;;;;;;;;;4997680;28;20040;-50
2021/06/13 04:58:43;;;;;;;5.55;2.17;;;;;;;;;;4998758;28;20453;-47
2021/06/13 05:01:08;;;;;;;5.47;2.42;;;;;;;;;;4999504;28;20026;-47
2021/06/13 05:03:34;;;;;;;5.80;2.58;;;;;;;;;;4999476;28;20032;-53
2021/06/13 05:05:59;;;;;;;3.53;2.53;;;;;;;;;;4997322;28;20041;-55
2021/06/13 05:08:24;;;;;;;5.32;2.30;;;;;;;;;;4982348;28;20048;-52
2021/06/13 05:10:50;;;;;;;5.15;2.42;;;;;;;;;;4980449;28;20030;-51
2021/06/13 05:13:16;;;;;;;5.28;2.30;;;;;;;;;;4999822;28;20117;-52
2021/06/13 05:15:42;;;;;;;4.40;2.30;;;;;;;;;;4998360;28;20042;-53
2021/06/13 05:18:07;;;;;;;4.93;2.35;;;;;;;;;;4997410;28;20554;-54
2021/06/13 05:20:33;;;;;;;4.78;2.15;;;;;;;;;;5003038;28;20082;-49
2021/06/13 05:23:02;;;;;;;4.32;2.28;;;;;;;;;;5008759;28;20108;-54
2021/06/13 05:25:32;;;;;;;3.88;2.17;;;;;;;;;;4975135;28;20029;-54
2021/06/13 05:27:57;;;;;;;4.45;2.20;;;;;;;;;;5007780;28;20055;-49
2021/06/13 05:30:29;;;;;;;4.57;2.22;;;;;;;;;;5007173;28;20659;-53
2021/06/13 05:32:55;;;;;;;5.57;2.22;;;;;;;;;;5008418;28;20025;-54
2021/06/13 05:35:20;;;;;;;6.40;2.67;;;;;;;;;;5008520;28;20037;-49
2021/06/13 05:37:46;;;;;;;5.35;2.10;;;;;;;;;;5007400;28;20076;-50
2021/06/13 05:40:12;;;;;;;5.93;2.45;;;;;;;;;;5008240;28;20494;-52
2021/06/13 05:42:37;;;;;;;4.50;2.17;;;;;;;;;;5007793;28;20033;-48
2021/06/13 05:45:04;;;;;;;4.43;2.22;;;;;;;;;;5008625;28;20487;-52
2021/06/13 05:47:30;;;;;;;3.97;2.10;;;;;;;;;;4988067;28;20026;-51
2021/06/13 05:49:55;;;;;;;6.68;2.30;;;;;;;;;;4988252;28;20026;-53
2021/06/13 05:52:20;;;;;;;5.40;1.92;;;;;;;;;;5003590;28;20053;-55
2021/06/13 05:54:46;;;;;;;4.32;2.50;;;;;;;;;;4995936;28;20065;-55
2021/06/13 05:57:11;;;;;;;3.78;1.70;;;;;;;;;;4988025;28;20056;-50
2021/06/13 05:59:36;;;;;;;4.95;2.05;;;;;;;;;;4991504;28;20065;-56
2021/06/13 06:02:02;;;;;;;4.63;2.10;;;;;;;;;;4971586;28;20525;-47
2021/06/13 06:04:27;;;;;;;5.32;2.45;;;;;;;;;;4999156;28;20026;-47
2021/06/13 06:06:52;;;;;;;3.65;1.95;;;;;;;;;;5007524;28;20036;-47
2021/06/13 06:09:18;;;;;;;4.25;2.15;;;;;;;;;;5007684;28;20034;-50
2021/06/13 06:11:43;;;;;;;4.65;1.90;;;;;;;;;;5008313;28;20049;-48
2021/06/13 06:14:09;;;;;;;4.18;2.15;;;;;;;;;;5007597;28;20030;-49
2021/06/13 06:16:34;;;;;;;6.20;2.53;;;;;;;;;;4997048;28;20805;-50
2021/06/13 06:19:00;;;;;;;4.47;2.45;;;;;;;;;;5007423;28;20038;-48
2021/06/13 06:21:25;;;;;;;5.50;2.35;;;;;;;;;;5008183;28;20029;-52
2021/06/13 06:23:53;;;;;;;7.10;2.45;;;;;;;;;;4998471;28;20022;-52
2021/06/13 06:26:19;;;;;;;4.88;2.15;;;;;;;;;;4997225;28;20026;-52
2021/06/13 06:28:44;;;;;;;4.15;2.33;;;;;;;;;;5006942;28;20026;-51
2021/06/13 06:31:11;;;;;;;6.40;2.40;;;;;;;;;;5007779;28;20076;-50
2021/06/13 06:33:37;;;;;;;5.80;2.72;;;;;;;;;;4998281;28;20080;-48
2021/06/13 06:36:02;;;;;;;5.60;2.85;;;;;;;;;;4988193;28;20426;-50
2021/06/13 06:38:28;;;;;;;5.13;2.47;;;;;;;;;;4987790;28;20026;-49
2021/06/13 06:40:53;;;;;;;4.78;2.33;;;;;;;;;;5007803;28;20053;-47
2021/06/13 06:43:18;;;;;;;5.03;2.35;;;;;;;;;;5007916;28;20033;-49
2021/06/13 06:45:44;;;;;;;4.75;2.33;;;;;;;;;;5002629;28;20106;-48
2021/06/13 06:48:09;;;;;;;4.35;2.10;;;;;;;;;;5002759;28;20393;-52
2021/06/13 06:50:35;;;;;;;5.63;2.45;;;;;;;;;;5006958;28;20030;-48
2021/06/13 06:53:00;;;;;;;5.03;2.45;;;;;;;;;;4988891;28;20052;-53
2021/06/13 06:55:25;;;;;;;6.05;2.40;;;;;;;;;;5000023;28;20460;-55
2021/06/13 06:57:51;;;;;;;5.53;2.00;;;;;;;;;;4982142;28;20054;-47
2021/06/13 07:00:17;;;;;;;6.22;2.42;;;;;;;;;;4999181;28;20450;-53
2021/06/13 07:02:43;;;;;;;5.93;2.88;;;;;;;;;;4989071;28;20058;-51
2021/06/13 07:05:09;;;;;;;6.63;2.40;;;;;;;;;;4998536;28;20459;-48
2021/06/13 07:07:34;;;;;;;5.45;2.22;;;;;;;;;;4996974;28;20097;-50
2021/06/13 07:10:00;;;;;;;7.13;2.90;;;;;;;;;;4995161;28;20124;-47
2021/06/13 07:12:25;;;;;;;4.45;2.20;;;;;;;;;;4998638;28;20034;-52
2021/06/13 07:14:51;;;;;;;9.05;2.55;;;;;;;;;;4999553;28;20113;-49
2021/06/13 07:17:17;;;;;;;6.20;2.42;;;;;;;;;;4998580;28;20576;-53
2021/06/13 07:19:42;;;;;;;6.03;2.60;;;;;;;;;;4999821;28;20057;-52
2021/06/13 07:22:07;;;;;;;4.00;2.30;;;;;;;;;;5007751;28;20026;-48
2021/06/13 07:24:33;;;;;;;7.20;2.50;;;;;;;;;;5008186;28;20088;-48
2021/06/13 07:26:59;;;;;;;5.15;2.40;;;;;;;;;;5007468;28;20025;-49
2021/06/13 07:29:24;;;;;;;5.75;2.15;;;;;;;;;;5008556;28;20034;-50
2021/06/13 07:31:50;;;;;;;5.90;2.70;;;;;;;;;;5007940;28;20025;-50
2021/06/13 07:34:16;;;;;;;4.95;2.42;;;;;;;;;;5008295;28;20556;-55
2021/06/13 07:36:41;;;;;;;4.95;2.60;;;;;;;;;;5007617;28;20022;-54
2021/06/13 07:39:07;;;;;;;7.00;2.70;;;;;;;;;;5005138;28;20101;-54
2021/06/13 07:41:32;;;;;;;4.85;2.40;;;;;;;;;;4997849;28;20026;-53
2021/06/13 07:43:58;;;;;;;6.10;2.58;;;;;;;;;;5003018;28;20516;-51
2021/06/13 07:46:23;;;;;;;5.28;2.45;;;;;;;;;;4996131;28;20038;-58
2021/06/13 07:48:49;;;;;;;5.57;2.50;;;;;;;;;;4987790;28;20042;-52
2021/06/13 07:51:14;;;;;;;5.30;2.08;;;;;;;;;;4996765;28;20033;-49
2021/06/13 07:53:43;;;;;;;5.57;2.28;;;;;;;;;;5006213;28;20022;-47
2021/06/13 07:56:12;;;;;;;9.52;2.78;;;;;;;;;;4992613;28;20038;-54
2021/06/13 07:58:37;;;;;;;6.82;2.67;;;;;;;;;;4989667;28;20036;-48
2021/06/13 08:01:03;;;;;;;5.32;2.83;;;;;;;;;;5002902;28;20022;-51
2021/06/13 08:03:28;;;;;;;6.63;3.03;;;;;;;;;;5009772;28;20734;-51
2021/06/13 08:05:53;;;;;;;6.15;2.65;;;;;;;;;;5006399;28;20080;-51
2021/06/13 08:08:19;;;;;;;8.23;3.10;;;;;;;;;;5027565;22;20067;-56
2021/06/13 08:10:44;;;;;;;7.78;2.60;;;;;;;;;;5040305;28;20117;-56
2021/06/13 08:13:10;;;;;;;5.00;2.35;;;;;;;;;;5029674;28;20117;-56
2021/06/13 08:15:35;;;;;;;7.13;2.38;;;;;;;;;;5032466;28;20033;-55
2021/06/13 08:18:00;;;;;;;6.47;2.40;;;;;;;;;;5048455;28;20120;-57
2021/06/13 08:20:27;;;;;;;5.10;2.33;;;;;;;;;;5048745;28;20033;-57
2021/06/13 08:22:52;;;;;;;7.78;2.63;;;;;;;;;;5045242;28;20017;-58
2021/06/13 08:25:17;;;;;;;6.93;3.03;;;;;;;;;;5042477;28;20041;-58
2021/06/13 08:27:43;;;;;;;7.53;2.45;;;;;;;;;;5040275;28;20024;-58
2021/06/13 08:30:11;;;;;;;7.38;2.80;;;;;;;;;;5040801;28;20029;-57
2021/06/13 08:32:36;;;;;;;7.72;3.00;;;;;;;;;;5049433;28;20466;-57
2021/06/13 08:35:02;;;;;;;6.85;2.80;;;;;;;;;;5049558;28;20176;-57
2021/06/13 08:37:27;;;;;;;8.00;2.78;;;;;;;;;;5047713;28;20025;-55
2021/06/13 08:39:53;;;;;;;5.82;2.45;;;;;;;;;;5048842;28;20052;-58
2021/06/13 08:42:19;;;;;;;7.60;2.60;;;;;;;;;;5048211;28;20509;-57
2021/06/13 08:44:44;;;;;;;5.93;2.60;;;;;;;;;;5048203;28;20043;-57
2021/06/13 08:47:14;;;;;;;6.68;2.63;;;;;;;;;;5029100;28;20032;-56
2021/06/13 08:49:40;;;;;;;6.05;2.60;;;;;;;;;;5046705;28;20021;-57
2021/06/13 08:52:06;;;;;;;6.05;2.33;;;;;;;;;;5029788;28;20389;-57
2021/06/13 08:54:31;;;;;;;7.93;2.63;;;;;;;;;;5047517;28;20025;-52
2021/06/13 08:57:00;;;;;;;5.35;2.20;;;;;;;;;;5047618;28;20035;-52
2021/06/13 08:59:25;;;;;;;6.75;2.47;;;;;;;;;;5047637;28;20037;-52
2021/06/13 09:01:50;;;;;;;5.63;2.75;;;;;;;;;;5033949;28;20670;-53
2021/06/13 09:04:16;;;;;;;7.28;3.08;;;;;;;;;;5031874;28;20041;-53
2021/06/13 09:06:41;;;;;;;6.82;2.42;;;;;;;;;;5038959;28;20034;-51
2021/06/13 09:09:36;;;;;;;6.50;2.72;;;;;;;;;;5028218;28;20044;-53
2021/06/13 09:12:03;;;;;;;7.63;2.33;;;;;;;;;;5026475;28;20107;-52
2021/06/13 09:14:28;;;;;;;7.28;2.63;;;;;;;;;;5031254;28;20040;-53
2021/06/13 09:16:54;;;;;;;5.55;2.10;;;;;;;;;;5033224;28;20029;-52
2021/06/13 09:19:20;;;;;;;7.47;2.67;;;;;;;;;;5026200;28;20025;-51
2021/06/13 09:21:46;;;;;;;6.22;2.30;;;;;;;;;;5002900;28;20040;-53
2021/06/13 09:24:25;;;;;;;5.20;2.50;;;;;;;;;;5040541;28;20025;-56
2021/06/13 09:26:54;;;;;;;7.97;2.50;;;;;;;;;;5044301;28;20044;-54
2021/06/13 09:29:19;;;;;;;6.65;2.70;;;;;;;;;;5048313;28;20028;-53
2021/06/13 09:31:45;;;;;;;8.15;2.45;;;;;;;;;;5034174;28;20393;-54
2021/06/13 09:34:18;;;;;;;6.75;2.85;;;;;;;;;;5060667;28;20017;-52
2021/06/13 09:36:43;;;;;;;6.07;2.20;;;;;;;;;;5067199;28;20063;-53
2021/06/13 09:39:11;;;;;;;5.75;1.95;;;;;;;;;;5061433;28;20489;-52
2021/06/13 09:41:41;;;;;;;7.43;2.75;;;;;;;;;;5028108;28;20025;-51
2021/06/13 09:44:12;;;;;;;5.93;2.53;;;;;;;;;;5036485;28;20117;-53
2021/06/13 09:46:39;;;;;;;5.40;2.85;;;;;;;;;;5034507;28;20482;-52
2021/06/13 09:49:07;;;;;;;4.63;2.28;;;;;;;;;;5028079;28;20029;-53
2021/06/13 09:51:35;;;;;;;8.13;2.50;;;;;;;;;;5038538;28;20040;-51
2021/06/13 09:54:05;;;;;;;5.80;2.10;;;;;;;;;;5047881;28;20071;-53
2021/06/13 09:56:35;;;;;;;5.88;2.63;;;;;;;;;;5048055;28;20044;-54
2021/06/13 09:59:13;;;;;;;7.63;2.60;;;;;;;;;;5045875;28;20827;-48
2021/06/13 10:01:51;;;;;;;12.43;3.22;;;;;;;;;;5032133;28;20030;-58
2021/06/13 10:04:19;;;;;;;6.20;2.40;;;;;;;;;;5024959;28;20032;-49
2021/06/13 10:06:47;;;;;;;6.63;2.70;;;;;;;;;;5045651;28;20104;-59
2021/06/13 10:09:12;;;;;;;4.53;2.55;;;;;;;;;;5043943;28;20033;-49
2021/06/13 10:11:39;;;;;;;5.75;2.47;;;;;;;;;;5047683;28;20424;-53
2021/06/13 10:14:06;;;;;;;8.35;2.30;;;;;;;;;;5044377;28;20025;-52
2021/06/13 10:16:38;;;;;;;6.38;2.17;;;;;;;;;;5039880;28;20027;-51
2021/06/13 10:19:12;;;;;;;4.93;2.35;;;;;;;;;;5067294;28;20028;-51
2021/06/13 10:21:43;;;;;;;5.72;2.50;;;;;;;;;;5056454;28;20025;-58
2021/06/13 10:24:12;;;;;;;6.60;2.53;;;;;;;;;;5048495;28;20029;-52
2021/06/13 10:26:40;;;;;;;8.40;2.47;;;;;;;;;;5048000;28;20032;-51
2021/06/13 10:29:07;;;;;;;5.68;2.17;;;;;;;;;;5047032;28;20532;-58
2021/06/13 10:31:33;;;;;;;5.40;2.05;;;;;;;;;;5035347;28;20026;-49
2021/06/13 10:33:59;;;;;;;5.93;2.33;;;;;;;;;;5030609;28;20124;-49
2021/06/13 10:36:25;;;;;;;5.63;2.10;;;;;;;;;;5044922;28;20104;-49
2021/06/13 10:38:51;;;;;;;5.65;2.58;;;;;;;;;;5046442;28;20500;-51
2021/06/13 10:41:16;;;;;;;4.80;2.05;;;;;;;;;;5033770;28;20029;-53
2021/06/13 10:43:43;;;;;;;5.25;2.08;;;;;;;;;;5051609;28;20064;-60
2021/06/13 10:46:19;;;;;;;4.63;2.33;;;;;;;;;;5025171;28;20103;-54
2021/06/13 10:48:51;;;;;;;4.25;2.10;;;;;;;;;;5014519;28;20037;-53
2021/06/13 10:51:33;;;;;;;4.82;1.85;;;;;;;;;;5048946;28;20492;-52
2021/06/13 10:54:28;;;;;;;4.65;2.20;;;;;;;;;;5033503;28;20061;-49
2021/06/13 10:57:14;;;;;;;6.95;2.33;;;;;;;;;;5050754;28;20077;-48
2021/06/13 10:59:41;;;;;;;9.43;2.50;;;;;;;;;;5009544;28;20439;-52
2021/06/13 11:02:11;;;;;;;5.10;2.22;;;;;;;;;;5049751;28;20074;-59
2021/06/13 11:05:02;;;;;;;7.15;2.33;;;;;;;;;;5051350;28;20382;-54
2021/06/13 11:07:27;;;;;;;5.10;2.70;;;;;;;;;;5038995;28;20036;-49
2021/06/13 11:10:14;;;;;;;7.97;2.28;;;;;;;;;;5050893;28;20505;-53
2021/06/13 11:13:09;;;;;;;7.63;2.55;;;;;;;;;;5049223;28;20040;-48
2021/06/13 11:15:35;;;;;;;7.05;2.50;;;;;;;;;;5044624;28;20043;-53
2021/06/13 11:18:10;;;;;;;7.18;2.80;;;;;;;;;;5029360;28;20029;-50
2021/06/13 11:23:29;;;;;;;5.55;2.75;;;;;;;;;;5033038;28;20048;-48
2021/06/13 11:25:59;;;;;;;7.65;2.22;;;;;;;;;;5040772;28;20128;-55
2021/06/13 11:28:30;;;;;;;5.30;2.50;;;;;;;;;;5033091;28;20029;-57
2021/06/13 11:30:58;;;;;;;5.57;2.65;;;;;;;;;;5050313;28;20032;-60
2021/06/13 11:33:38;;;;;;;7.47;2.38;;;;;;;;;;5050073;28;20036;-57
2021/06/13 11:36:15;;;;;;;8.85;2.58;;;;;;;;;;5035517;28;20109;-56
2021/06/13 11:38:54;;;;;;;7.18;2.00;;;;;;;;;;5049853;28;20497;-58
2021/06/13 11:41:26;;;;;;;6.15;2.60;;;;;;;;;;5032367;28;20024;-58
2021/06/13 11:43:51;;;;;;;18.13;3.58;;;;;;;;;;5043285;28;20036;-58
2021/06/13 11:46:37;;;;;;;9.02;2.70;;;;;;;;;;5042443;28;20036;-59
2021/06/13 11:49:03;;;;;;;7.85;2.58;;;;;;;;;;5049689;28;20017;-57
2021/06/13 11:51:29;;;;;;;9.32;2.30;;;;;;;;;;5050164;28;20499;-55
2021/06/13 11:54:00;;;;;;;10.30;2.45;;;;;;;;;;5050005;28;20098;-59
2021/06/13 11:56:40;;;;;;;11.63;2.97;;;;;;;;;;5048489;28;20035;-56
2021/06/13 11:59:15;;;;;;;7.32;1.95;;;;;;;;;;5050185;28;20036;-57
2021/06/13 12:01:44;;;;;;;9.23;2.50;;;;;;;;;;5031271;28;20027;-47
2021/06/13 12:04:14;;;;;;;9.32;2.53;;;;;;;;;;5049582;28;20033;-54
2021/06/13 12:06:40;;;;;;;11.33;2.67;;;;;;;;;;5048164;28;20051;-53
2021/06/13 12:09:07;;;;;;;5.03;2.17;;;;;;;;;;5020772;28;20273;-56
2021/06/13 12:11:35;;;;;;;5.93;2.35;;;;;;;;;;5029999;28;20078;-49
2021/06/13 12:14:25;;;;;;;8.95;2.72;;;;;;;;;;5040518;28;20492;-50
2021/06/13 12:16:53;;;;;;;11.27;2.83;;;;;;;;;;5047681;28;20492;-59
2021/06/13 12:19:31;;;;;;;7.60;2.15;;;;;;;;;;5048991;28;20029;-58
2021/06/13 12:22:19;;;;;;;9.35;2.85;;;;;;;;;;5049559;28;20627;-58
2021/06/13 12:27:23;;;;;;;9.65;2.60;;;;;;;;;;5047973;28;20555;-57
2021/06/13 12:29:52;;;;;;;17.42;2.85;;;;;;;;;;5050714;28;20049;-56
2021/06/13 12:32:17;;;;;;;11.05;2.40;;;;;;;;;;5034400;28;20275;-52
2021/06/13 12:34:44;;;;;;;10.70;2.90;;;;;;;;;;5050310;28;20060;-54
2021/06/13 12:37:17;;;;;;;5.90;2.13;;;;;;;;;;5050730;28;20090;-57
2021/06/13 12:40:15;;;;;;;9.73;2.67;;;;;;;;;;5063122;28;20388;-53
2021/06/13 12:42:42;;;;;;;7.22;2.35;;;;;;;;;;4992279;28;20068;-58
2021/06/13 12:45:12;;;;;;;7.20;2.38;;;;;;;;;;5032971;28;20044;-54
2021/06/13 12:47:38;;;;;;;7.78;2.25;;;;;;;;;;5032036;28;20025;-58
2021/06/13 12:50:05;;;;;;;9.27;2.50;;;;;;;;;;5049001;28;20090;-57
2021/06/13 12:52:31;;;;;;;9.38;2.35;;;;;;;;;;5050336;28;20409;-58
2021/06/13 12:55:04;;;;;;;7.80;2.20;;;;;;;;;;5049848;28;20104;-54
2021/06/13 12:57:30;;;;;;;7.55;2.40;;;;;;;;;;5032242;28;20028;-56
2021/06/13 12:59:55;;;;;;;10.82;2.67;;;;;;;;;;5044357;28;20033;-57
2021/06/13 13:02:21;;;;;;;6.97;2.47;;;;;;;;;;5019529;28;20381;-57
2021/06/13 13:04:56;;;;;;;6.50;2.05;;;;;;;;;;5033770;28;20053;-56
2021/06/13 13:07:28;;;;;;;8.07;2.58;;;;;;;;;;5040004;28;20108;-54
2021/06/13 13:10:24;;;;;;;10.77;2.22;;;;;;;;;;5049754;28;20091;-54
2021/06/13 13:12:56;;;;;;;6.55;2.67;;;;;;;;;;5047180;28;20116;-53
2021/06/13 13:15:31;;;;;;;6.50;2.95;;;;;;;;;;5044023;28;20058;-51
2021/06/13 13:18:10;;;;;;;6.03;2.55;;;;;;;;;;5029176;28;20120;-56
2021/06/13 13:20:36;;;;;;;6.65;2.30;;;;;;;;;;5032000;28;20032;-54
2021/06/13 13:23:13;;;;;;;5.18;2.13;;;;;;;;;;5045184;28;20025;-51
2021/06/13 13:25:52;;;;;;;7.40;2.50;;;;;;;;;;5040593;28;20541;-56
2021/06/13 13:28:19;;;;;;;7.13;2.22;;;;;;;;;;5048521;28;20040;-52
2021/06/13 13:30:44;;;;;;;8.55;3.05;;;;;;;;;;5043178;28;20036;-52
2021/06/13 13:33:10;;;;;;;4.93;2.10;;;;;;;;;;5028745;28;20026;-56
2021/06/13 13:35:41;;;;;;;6.38;2.65;;;;;;;;;;5048697;28;20024;-58
2021/06/13 13:38:07;;;;;;;6.47;2.40;;;;;;;;;;5042341;28;20071;-56
2021/06/13 13:40:32;;;;;;;5.03;2.20;;;;;;;;;;5029911;28;20444;-60
2021/06/13 13:43:06;;;;;;;10.73;2.55;;;;;;;;;;5043367;28;20060;-58
2021/06/13 13:45:33;;;;;;;5.35;2.50;;;;;;;;;;5043672;28;20029;-58
2021/06/13 13:48:09;;;;;;;5.47;2.70;;;;;;;;;;5029833;28;20033;-57
2021/06/13 13:50:35;;;;;;;5.13;2.28;;;;;;;;;;5030774;28;20382;-55
2021/06/13 13:53:23;;;;;;;9.13;2.70;;;;;;;;;;5048551;28;20524;-54
2021/06/13 13:55:50;;;;;;;9.68;2.50;;;;;;;;;;5044816;28;20037;-50
2021/06/13 13:58:17;;;;;;;9.80;2.47;;;;;;;;;;5047443;28;20108;-56
2021/06/13 14:00:42;;;;;;;7.32;2.38;;;;;;;;;;5022673;28;20017;-49
2021/06/13 14:03:07;;;;;;;10.70;2.60;;;;;;;;;;5039730;28;20029;-54
2021/06/13 14:05:33;;;;;;;9.60;3.20;;;;;;;;;;5038297;28;20124;-49
2021/06/13 14:07:58;;;;;;;8.93;2.60;;;;;;;;;;5040697;28;20037;-50
2021/06/13 14:10:23;;;;;;;7.20;2.58;;;;;;;;;;5038137;28;20029;-57
2021/06/13 14:12:49;;;;;;;6.30;2.30;;;;;;;;;;5043147;28;20074;-53
2021/06/13 14:15:15;;;;;;;6.68;2.63;;;;;;;;;;5040881;28;20104;-53
2021/06/13 14:17:40;;;;;;;9.52;3.42;;;;;;;;;;5044463;28;20028;-57
2021/06/13 14:20:07;;;;;;;8.38;2.75;;;;;;;;;;5042406;28;20064;-56
2021/06/13 14:22:33;;;;;;;7.93;2.40;;;;;;;;;;5043680;28;20025;-54
2021/06/13 14:24:58;;;;;;;7.13;2.42;;;;;;;;;;5008208;28;20816;-53
2021/06/13 14:27:23;;;;;;;5.95;2.85;;;;;;;;;;5040820;28;20033;-57
2021/06/13 14:29:49;;;;;;;6.45;2.53;;;;;;;;;;5045959;28;20057;-52
2021/06/13 14:32:14;;;;;;;10.98;3.05;;;;;;;;;;5059568;22;20044;-83
2021/06/13 14:34:39;;;;;;;5.35;2.47;;;;;;;;;;5041070;28;20041;-81
2021/06/13 14:37:05;;;;;;;6.97;2.10;;;;;;;;;;5031661;28;20104;-83
2021/06/13 14:39:30;;;;;;;5.50;2.72;;;;;;;;;;5018550;28;20028;-82
2021/06/13 14:41:56;;;;;;;7.50;2.40;;;;;;;;;;5019357;28;20017;-83
2021/06/13 14:44:21;;;;;;;6.63;2.40;;;;;;;;;;5018005;28;20033;-82
2021/06/13 14:46:48;;;;;;;8.15;2.60;;;;;;;;;;5020768;28;20104;-82
2021/06/13 14:49:13;;;;;;;7.40;2.45;;;;;;;;;;5041976;28;20104;-82
2021/06/13 14:51:39;;;;;;;5.88;2.45;;;;;;;;;;5055757;28;20028;-83
2021/06/13 14:54:05;;;;;;;7.22;2.60;;;;;;;;;;5025777;28;20071;-83